sensor_id;sensor_type;location;lat;lon;timestamp;P1;durP1;ratioP1;P2;durP2;ratioP2
13487;SDS011;6816;48.506;9.050;2023-07-20T00:01:46;2.13;;;1.92;;
13487;SDS011;6816;48.506;9.050;2023-07-20T00:04:47;2.33;;;1.38;;
13487;SDS011;6816;48.506;9.050;2023-07-20T00:07:47;2.35;;;1.60;;
13487;SDS011;6816;48.506;9.050;2023-07-20T00:10:51;1.90;;;1.60;;
13487;SDS011;6816;48.506;9.050;2023-07-20T00:13:52;3.47;;;1.65;;
13487;SDS011;6816;48.506;9.050;2023-07-20T00:16:54;3.95;;;1.77;;
13487;SDS011;6816;48.506;9.050;2023-07-20T00:19:55;2.33;;;1.30;;
13487;SDS011;6816;48.506;9.050;2023-07-20T00:22:56;2.97;;;1.45;;
13487;SDS011;6816;48.506;9.050;2023-07-20T00:25:58;1.75;;;1.52;;
13487;SDS011;6816;48.506;9.050;2023-07-20T00:28:58;1.40;;;1.30;;
13487;SDS011;6816;48.506;9.050;2023-07-20T00:31:59;2.78;;;1.60;;
13487;SDS011;6816;48.506;9.050;2023-07-20T00:34:59;3.72;;;1.52;;
13487;SDS011;6816;48.506;9.050;2023-07-20T00:38:00;1.80;;;1.60;;
13487;SDS011;6816;48.506;9.050;2023-07-20T00:41:00;2.47;;;1.60;;
13487;SDS011;6816;48.506;9.050;2023-07-20T00:44:01;1.95;;;1.70;;
13487;SDS011;6816;48.506;9.050;2023-07-20T00:47:02;1.55;;;1.42;;
13487;SDS011;6816;48.506;9.050;2023-07-20T00:50:02;2.20;;;1.63;;
13487;SDS011;6816;48.506;9.050;2023-07-20T00:53:05;2.53;;;1.58;;
13487;SDS011;6816;48.506;9.050;2023-07-20T00:56:06;4.18;;;1.90;;
13487;SDS011;6816;48.506;9.050;2023-07-20T00:59:08;1.98;;;1.88;;
13487;SDS011;6816;48.506;9.050;2023-07-20T01:02:09;4.25;;;1.85;;
13487;SDS011;6816;48.506;9.050;2023-07-20T01:05:10;3.15;;;1.65;;
13487;SDS011;6816;48.506;9.050;2023-07-20T01:08:17;2.00;;;1.70;;
13487;SDS011;6816;48.506;9.050;2023-07-20T01:11:23;2.35;;;1.83;;
13487;SDS011;6816;48.506;9.050;2023-07-20T01:14:39;3.97;;;1.52;;
13487;SDS011;6816;48.506;9.050;2023-07-20T01:17:40;1.70;;;1.58;;
13487;SDS011;6816;48.506;9.050;2023-07-20T01:20:40;2.67;;;1.77;;
13487;SDS011;6816;48.506;9.050;2023-07-20T01:24:00;1.75;;;1.65;;
13487;SDS011;6816;48.506;9.050;2023-07-20T01:33:58;2.47;;;1.63;;
13487;SDS011;6816;48.506;9.050;2023-07-20T01:37:01;2.03;;;1.70;;
13487;SDS011;6816;48.506;9.050;2023-07-20T01:40:02;1.65;;;1.55;;
13487;SDS011;6816;48.506;9.050;2023-07-20T01:43:03;1.95;;;1.80;;
13487;SDS011;6816;48.506;9.050;2023-07-20T01:46:04;1.80;;;1.70;;
13487;SDS011;6816;48.506;9.050;2023-07-20T01:49:04;3.30;;;1.70;;
13487;SDS011;6816;48.506;9.050;2023-07-20T01:52:05;2.65;;;1.52;;
13487;SDS011;6816;48.506;9.050;2023-07-20T01:55:06;2.35;;;2.05;;
13487;SDS011;6816;48.506;9.050;2023-07-20T01:58:07;2.20;;;1.77;;
13487;SDS011;6816;48.506;9.050;2023-07-20T02:01:07;2.90;;;2.20;;
13487;SDS011;6816;48.506;9.050;2023-07-20T02:04:08;2.45;;;1.90;;
13487;SDS011;6816;48.506;9.050;2023-07-20T02:07:08;3.15;;;1.70;;
13487;SDS011;6816;48.506;9.050;2023-07-20T02:10:09;2.40;;;1.83;;
13487;SDS011;6816;48.506;9.050;2023-07-20T02:13:10;2.47;;;1.80;;
13487;SDS011;6816;48.506;9.050;2023-07-20T02:16:10;1.98;;;1.80;;
13487;SDS011;6816;48.506;9.050;2023-07-20T02:19:12;1.92;;;1.73;;
13487;SDS011;6816;48.506;9.050;2023-07-20T02:22:14;2.50;;;1.98;;
13487;SDS011;6816;48.506;9.050;2023-07-20T02:25:15;2.17;;;1.80;;
13487;SDS011;6816;48.506;9.050;2023-07-20T02:28:16;3.15;;;1.90;;
13487;SDS011;6816;48.506;9.050;2023-07-20T02:31:16;2.95;;;1.80;;
13487;SDS011;6816;48.506;9.050;2023-07-20T02:34:17;1.95;;;1.58;;
13487;SDS011;6816;48.506;9.050;2023-07-20T02:37:17;2.38;;;1.67;;
13487;SDS011;6816;48.506;9.050;2023-07-20T02:40:18;2.17;;;1.95;;
13487;SDS011;6816;48.506;9.050;2023-07-20T02:43:18;2.40;;;1.85;;
13487;SDS011;6816;48.506;9.050;2023-07-20T02:46:19;2.90;;;1.73;;
13487;SDS011;6816;48.506;9.050;2023-07-20T02:49:20;3.03;;;2.00;;
13487;SDS011;6816;48.506;9.050;2023-07-20T02:52:20;3.58;;;1.80;;
13487;SDS011;6816;48.506;9.050;2023-07-20T02:55:21;2.30;;;1.90;;
13487;SDS011;6816;48.506;9.050;2023-07-20T02:58:21;2.08;;;1.90;;
13487;SDS011;6816;48.506;9.050;2023-07-20T03:01:22;2.20;;;1.88;;
13487;SDS011;6816;48.506;9.050;2023-07-20T03:04:23;1.98;;;1.77;;
13487;SDS011;6816;48.506;9.050;2023-07-20T03:07:26;1.90;;;1.77;;
13487;SDS011;6816;48.506;9.050;2023-07-20T03:10:28;2.13;;;1.83;;
13487;SDS011;6816;48.506;9.050;2023-07-20T03:13:30;2.70;;;2.08;;
13487;SDS011;6816;48.506;9.050;2023-07-20T03:16:30;3.72;;;2.03;;
13487;SDS011;6816;48.506;9.050;2023-07-20T03:19:32;3.17;;;1.85;;
13487;SDS011;6816;48.506;9.050;2023-07-20T03:22:33;1.90;;;1.80;;
13487;SDS011;6816;48.506;9.050;2023-07-20T03:25:33;4.40;;;2.30;;
13487;SDS011;6816;48.506;9.050;2023-07-20T03:28:37;3.08;;;2.05;;
13487;SDS011;6816;48.506;9.050;2023-07-20T03:31:38;2.75;;;1.92;;
13487;SDS011;6816;48.506;9.050;2023-07-20T03:34:39;2.50;;;2.05;;
13487;SDS011;6816;48.506;9.050;2023-07-20T03:37:40;2.47;;;2.10;;
13487;SDS011;6816;48.506;9.050;2023-07-20T03:40:48;2.38;;;2.17;;
13487;SDS011;6816;48.506;9.050;2023-07-20T03:43:56;2.08;;;1.88;;
13487;SDS011;6816;48.506;9.050;2023-07-20T03:46:57;2.17;;;1.90;;
13487;SDS011;6816;48.506;9.050;2023-07-20T03:49:58;2.00;;;1.80;;
13487;SDS011;6816;48.506;9.050;2023-07-20T03:52:58;3.03;;;2.40;;
13487;SDS011;6816;48.506;9.050;2023-07-20T03:55:59;2.60;;;2.08;;
13487;SDS011;6816;48.506;9.050;2023-07-20T03:59:00;2.28;;;1.80;;
13487;SDS011;6816;48.506;9.050;2023-07-20T04:02:01;3.13;;;2.20;;
13487;SDS011;6816;48.506;9.050;2023-07-20T04:05:02;3.20;;;2.03;;
13487;SDS011;6816;48.506;9.050;2023-07-20T04:08:02;2.33;;;2.10;;
13487;SDS011;6816;48.506;9.050;2023-07-20T04:11:03;3.88;;;2.03;;
13487;SDS011;6816;48.506;9.050;2023-07-20T04:14:04;3.00;;;2.08;;
13487;SDS011;6816;48.506;9.050;2023-07-20T04:17:04;3.13;;;1.77;;
13487;SDS011;6816;48.506;9.050;2023-07-20T04:20:05;1.90;;;1.73;;
13487;SDS011;6816;48.506;9.050;2023-07-20T04:23:06;3.05;;;2.10;;
13487;SDS011;6816;48.506;9.050;2023-07-20T04:26:07;1.92;;;1.73;;
13487;SDS011;6816;48.506;9.050;2023-07-20T04:29:08;2.00;;;1.73;;
13487;SDS011;6816;48.506;9.050;2023-07-20T04:32:09;2.03;;;1.83;;
13487;SDS011;6816;48.506;9.050;2023-07-20T04:35:10;2.27;;;1.77;;
13487;SDS011;6816;48.506;9.050;2023-07-20T04:38:11;4.80;;;2.10;;
13487;SDS011;6816;48.506;9.050;2023-07-20T04:41:11;2.38;;;2.17;;
13487;SDS011;6816;48.506;9.050;2023-07-20T04:44:14;4.28;;;2.15;;
13487;SDS011;6816;48.506;9.050;2023-07-20T04:47:14;2.10;;;1.75;;
13487;SDS011;6816;48.506;9.050;2023-07-20T04:50:15;2.67;;;2.08;;
13487;SDS011;6816;48.506;9.050;2023-07-20T04:53:15;2.88;;;2.13;;
13487;SDS011;6816;48.506;9.050;2023-07-20T04:56:16;2.25;;;1.88;;
13487;SDS011;6816;48.506;9.050;2023-07-20T04:59:17;3.08;;;2.42;;
13487;SDS011;6816;48.506;9.050;2023-07-20T05:02:17;3.30;;;2.10;;
13487;SDS011;6816;48.506;9.050;2023-07-20T05:05:19;2.80;;;1.90;;
13487;SDS011;6816;48.506;9.050;2023-07-20T05:08:19;2.95;;;2.00;;
13487;SDS011;6816;48.506;9.050;2023-07-20T05:11:22;2.72;;;1.98;;
13487;SDS011;6816;48.506;9.050;2023-07-20T05:14:22;4.20;;;2.10;;
13487;SDS011;6816;48.506;9.050;2023-07-20T05:17:23;2.30;;;1.92;;
13487;SDS011;6816;48.506;9.050;2023-07-20T05:20:24;2.42;;;1.90;;
13487;SDS011;6816;48.506;9.050;2023-07-20T05:23:25;2.38;;;2.15;;
13487;SDS011;6816;48.506;9.050;2023-07-20T05:26:25;4.20;;;1.70;;
13487;SDS011;6816;48.506;9.050;2023-07-20T05:29:26;2.13;;;1.88;;
13487;SDS011;6816;48.506;9.050;2023-07-20T05:32:27;3.65;;;2.28;;
13487;SDS011;6816;48.506;9.050;2023-07-20T05:35:28;3.53;;;2.20;;
13487;SDS011;6816;48.506;9.050;2023-07-20T05:38:28;2.60;;;2.28;;
13487;SDS011;6816;48.506;9.050;2023-07-20T05:41:29;2.45;;;2.22;;
13487;SDS011;6816;48.506;9.050;2023-07-20T05:44:30;2.25;;;2.03;;
13487;SDS011;6816;48.506;9.050;2023-07-20T05:47:30;2.30;;;2.10;;
13487;SDS011;6816;48.506;9.050;2023-07-20T05:50:32;2.30;;;2.10;;
13487;SDS011;6816;48.506;9.050;2023-07-20T05:53:32;2.17;;;1.90;;
13487;SDS011;6816;48.506;9.050;2023-07-20T05:56:33;3.25;;;2.00;;
13487;SDS011;6816;48.506;9.050;2023-07-20T05:59:33;2.00;;;1.85;;
13487;SDS011;6816;48.506;9.050;2023-07-20T06:02:34;2.08;;;1.83;;
13487;SDS011;6816;48.506;9.050;2023-07-20T06:05:35;3.45;;;2.25;;
13487;SDS011;6816;48.506;9.050;2023-07-20T06:08:35;2.47;;;2.10;;
13487;SDS011;6816;48.506;9.050;2023-07-20T06:11:36;3.25;;;2.15;;
13487;SDS011;6816;48.506;9.050;2023-07-20T06:14:36;3.35;;;2.05;;
13487;SDS011;6816;48.506;9.050;2023-07-20T06:17:37;2.13;;;1.92;;
13487;SDS011;6816;48.506;9.050;2023-07-20T06:20:38;3.97;;;2.33;;
13487;SDS011;6816;48.506;9.050;2023-07-20T06:23:38;3.10;;;2.22;;
13487;SDS011;6816;48.506;9.050;2023-07-20T06:26:39;2.78;;;2.13;;
13487;SDS011;6816;48.506;9.050;2023-07-20T06:29:40;4.38;;;2.20;;
13487;SDS011;6816;48.506;9.050;2023-07-20T06:32:41;2.95;;;1.90;;
13487;SDS011;6816;48.506;9.050;2023-07-20T06:35:42;5.15;;;2.85;;
13487;SDS011;6816;48.506;9.050;2023-07-20T06:38:45;2.25;;;2.00;;
13487;SDS011;6816;48.506;9.050;2023-07-20T06:41:46;5.43;;;2.22;;
13487;SDS011;6816;48.506;9.050;2023-07-20T06:44:46;3.17;;;2.20;;
13487;SDS011;6816;48.506;9.050;2023-07-20T06:47:47;2.80;;;2.00;;
13487;SDS011;6816;48.506;9.050;2023-07-20T06:50:48;3.35;;;2.25;;
13487;SDS011;6816;48.506;9.050;2023-07-20T06:53:49;2.78;;;2.08;;
13487;SDS011;6816;48.506;9.050;2023-07-20T06:56:49;2.30;;;2.10;;
13487;SDS011;6816;48.506;9.050;2023-07-20T06:59:50;2.78;;;2.38;;
13487;SDS011;6816;48.506;9.050;2023-07-20T07:02:51;2.45;;;1.88;;
13487;SDS011;6816;48.506;9.050;2023-07-20T07:05:54;2.30;;;1.80;;
13487;SDS011;6816;48.506;9.050;2023-07-20T07:08:56;2.53;;;1.85;;
13487;SDS011;6816;48.506;9.050;2023-07-20T07:11:57;2.30;;;1.83;;
13487;SDS011;6816;48.506;9.050;2023-07-20T07:14:57;2.72;;;1.77;;
13487;SDS011;6816;48.506;9.050;2023-07-20T07:17:58;2.30;;;1.90;;
13487;SDS011;6816;48.506;9.050;2023-07-20T07:21:00;2.25;;;2.00;;
13487;SDS011;6816;48.506;9.050;2023-07-20T07:24:00;2.72;;;2.10;;
13487;SDS011;6816;48.506;9.050;2023-07-20T07:27:01;3.05;;;1.85;;
13487;SDS011;6816;48.506;9.050;2023-07-20T07:30:02;3.42;;;1.98;;
13487;SDS011;6816;48.506;9.050;2023-07-20T07:33:03;3.35;;;2.10;;
13487;SDS011;6816;48.506;9.050;2023-07-20T07:36:04;2.17;;;1.98;;
13487;SDS011;6816;48.506;9.050;2023-07-20T07:39:05;2.20;;;2.00;;
13487;SDS011;6816;48.506;9.050;2023-07-20T07:42:05;2.40;;;1.63;;
13487;SDS011;6816;48.506;9.050;2023-07-20T07:45:06;2.38;;;2.00;;
13487;SDS011;6816;48.506;9.050;2023-07-20T07:48:07;2.30;;;2.00;;
13487;SDS011;6816;48.506;9.050;2023-07-20T07:51:11;2.17;;;1.73;;
13487;SDS011;6816;48.506;9.050;2023-07-20T07:54:13;3.15;;;1.98;;
13487;SDS011;6816;48.506;9.050;2023-07-20T07:57:14;3.28;;;1.77;;
13487;SDS011;6816;48.506;9.050;2023-07-20T08:00:15;2.55;;;2.28;;
13487;SDS011;6816;48.506;9.050;2023-07-20T08:03:18;2.50;;;2.00;;
13487;SDS011;6816;48.506;9.050;2023-07-20T08:06:19;2.00;;;1.80;;
13487;SDS011;6816;48.506;9.050;2023-07-20T08:09:23;2.35;;;1.80;;
13487;SDS011;6816;48.506;9.050;2023-07-20T08:12:24;1.90;;;1.80;;
13487;SDS011;6816;48.506;9.050;2023-07-20T08:15:25;3.25;;;2.00;;
13487;SDS011;6816;48.506;9.050;2023-07-20T08:18:25;2.10;;;1.80;;
13487;SDS011;6816;48.506;9.050;2023-07-20T08:21:26;3.47;;;1.90;;
13487;SDS011;6816;48.506;9.050;2023-07-20T08:24:27;3.75;;;1.83;;
13487;SDS011;6816;48.506;9.050;2023-07-20T08:27:27;1.95;;;1.55;;
13487;SDS011;6816;48.506;9.050;2023-07-20T08:30:38;3.00;;;2.05;;
13487;SDS011;6816;48.506;9.050;2023-07-20T08:33:40;2.30;;;1.90;;
13487;SDS011;6816;48.506;9.050;2023-07-20T08:36:41;3.30;;;2.00;;
13487;SDS011;6816;48.506;9.050;2023-07-20T08:39:41;2.40;;;1.90;;
13487;SDS011;6816;48.506;9.050;2023-07-20T08:42:42;4.07;;;2.00;;
13487;SDS011;6816;48.506;9.050;2023-07-20T08:45:44;1.92;;;1.75;;
13487;SDS011;6816;48.506;9.050;2023-07-20T08:48:49;1.58;;;1.48;;
13487;SDS011;6816;48.506;9.050;2023-07-20T08:51:50;2.10;;;1.90;;
13487;SDS011;6816;48.506;9.050;2023-07-20T08:54:52;1.83;;;1.73;;
13487;SDS011;6816;48.506;9.050;2023-07-20T08:57:54;1.70;;;1.60;;
13487;SDS011;6816;48.506;9.050;2023-07-20T09:00:56;2.25;;;1.70;;
13487;SDS011;6816;48.506;9.050;2023-07-20T09:04:01;2.05;;;1.73;;
13487;SDS011;6816;48.506;9.050;2023-07-20T09:07:03;2.08;;;1.65;;
13487;SDS011;6816;48.506;9.050;2023-07-20T09:10:06;2.88;;;1.92;;
13487;SDS011;6816;48.506;9.050;2023-07-20T09:13:07;2.70;;;1.60;;
13487;SDS011;6816;48.506;9.050;2023-07-20T09:16:08;1.65;;;1.50;;
13487;SDS011;6816;48.506;9.050;2023-07-20T09:19:14;2.53;;;1.50;;
13487;SDS011;6816;48.506;9.050;2023-07-20T09:22:15;1.70;;;1.60;;
13487;SDS011;6816;48.506;9.050;2023-07-20T09:25:17;2.35;;;1.60;;
13487;SDS011;6816;48.506;9.050;2023-07-20T09:28:22;2.85;;;1.80;;
13487;SDS011;6816;48.506;9.050;2023-07-20T09:31:23;3.15;;;2.08;;
13487;SDS011;6816;48.506;9.050;2023-07-20T09:34:23;1.63;;;1.40;;
13487;SDS011;6816;48.506;9.050;2023-07-20T09:37:24;1.88;;;1.48;;
13487;SDS011;6816;48.506;9.050;2023-07-20T09:40:25;1.77;;;1.63;;
13487;SDS011;6816;48.506;9.050;2023-07-20T09:43:28;1.67;;;1.58;;
13487;SDS011;6816;48.506;9.050;2023-07-20T09:46:40;2.42;;;1.30;;
13487;SDS011;6816;48.506;9.050;2023-07-20T09:49:42;1.20;;;1.10;;
13487;SDS011;6816;48.506;9.050;2023-07-20T09:52:42;3.97;;;1.23;;
13487;SDS011;6816;48.506;9.050;2023-07-20T09:55:44;1.95;;;1.30;;
13487;SDS011;6816;48.506;9.050;2023-07-20T09:58:46;1.30;;;1.20;;
13487;SDS011;6816;48.506;9.050;2023-07-20T10:01:47;1.17;;;1.08;;
13487;SDS011;6816;48.506;9.050;2023-07-20T10:04:50;1.95;;;1.13;;
13487;SDS011;6816;48.506;9.050;2023-07-20T10:07:53;1.13;;;1.13;;
13487;SDS011;6816;48.506;9.050;2023-07-20T10:10:55;1.30;;;1.20;;
13487;SDS011;6816;48.506;9.050;2023-07-20T10:13:59;1.10;;;1.00;;
13487;SDS011;6816;48.506;9.050;2023-07-20T10:17:06;2.80;;;1.20;;
13487;SDS011;6816;48.506;9.050;2023-07-20T10:20:10;1.30;;;1.20;;
13487;SDS011;6816;48.506;9.050;2023-07-20T10:23:11;1.42;;;0.80;;
13487;SDS011;6816;48.506;9.050;2023-07-20T10:26:12;1.45;;;0.98;;
13487;SDS011;6816;48.506;9.050;2023-07-20T10:29:13;1.40;;;1.30;;
13487;SDS011;6816;48.506;9.050;2023-07-20T10:32:15;1.25;;;1.15;;
13487;SDS011;6816;48.506;9.050;2023-07-20T10:35:17;2.03;;;1.20;;
13487;SDS011;6816;48.506;9.050;2023-07-20T10:38:18;1.30;;;1.20;;
13487;SDS011;6816;48.506;9.050;2023-07-20T10:41:19;1.67;;;1.00;;
13487;SDS011;6816;48.506;9.050;2023-07-20T10:44:21;1.20;;;1.10;;
13487;SDS011;6816;48.506;9.050;2023-07-20T10:47:22;1.63;;;1.17;;
13487;SDS011;6816;48.506;9.050;2023-07-20T10:50:23;1.35;;;1.08;;
13487;SDS011;6816;48.506;9.050;2023-07-20T10:53:23;1.48;;;1.13;;
13487;SDS011;6816;48.506;9.050;2023-07-20T10:56:27;1.20;;;1.10;;
13487;SDS011;6816;48.506;9.050;2023-07-20T11:02:35;1.20;;;1.10;;
13487;SDS011;6816;48.506;9.050;2023-07-20T11:05:47;1.88;;;1.30;;
13487;SDS011;6816;48.506;9.050;2023-07-20T11:08:47;1.35;;;1.25;;
13487;SDS011;6816;48.506;9.050;2023-07-20T11:11:48;1.42;;;1.10;;
13487;SDS011;6816;48.506;9.050;2023-07-20T11:14:56;1.20;;;1.10;;
13487;SDS011;6816;48.506;9.050;2023-07-20T11:18:10;1.17;;;1.10;;
13487;SDS011;6816;48.506;9.050;2023-07-20T11:21:12;2.55;;;1.00;;
13487;SDS011;6816;48.506;9.050;2023-07-20T11:24:13;1.15;;;1.05;;
13487;SDS011;6816;48.506;9.050;2023-07-20T11:27:13;1.55;;;1.10;;
13487;SDS011;6816;48.506;9.050;2023-07-20T11:30:17;1.33;;;1.00;;
13487;SDS011;6816;48.506;9.050;2023-07-20T11:33:18;1.80;;;1.30;;
13487;SDS011;6816;48.506;9.050;2023-07-20T11:36:18;1.30;;;1.20;;
13487;SDS011;6816;48.506;9.050;2023-07-20T11:39:22;2.45;;;1.05;;
13487;SDS011;6816;48.506;9.050;2023-07-20T11:42:24;1.58;;;1.00;;
13487;SDS011;6816;48.506;9.050;2023-07-20T11:45:25;1.00;;;0.90;;
13487;SDS011;6816;48.506;9.050;2023-07-20T11:48:27;1.08;;;1.00;;
13487;SDS011;6816;48.506;9.050;2023-07-20T11:51:28;1.20;;;0.95;;
13487;SDS011;6816;48.506;9.050;2023-07-20T11:54:29;0.90;;;0.90;;
13487;SDS011;6816;48.506;9.050;2023-07-20T11:57:31;1.10;;;1.00;;
13487;SDS011;6816;48.506;9.050;2023-07-20T12:00:32;1.42;;;1.17;;
13487;SDS011;6816;48.506;9.050;2023-07-20T12:03:34;1.08;;;1.00;;
13487;SDS011;6816;48.506;9.050;2023-07-20T12:06:35;2.42;;;0.95;;
13487;SDS011;6816;48.506;9.050;2023-07-20T12:09:35;1.45;;;1.13;;
13487;SDS011;6816;48.506;9.050;2023-07-20T12:12:40;0.98;;;0.95;;
13487;SDS011;6816;48.506;9.050;2023-07-20T12:15:42;1.08;;;1.08;;
13487;SDS011;6816;48.506;9.050;2023-07-20T12:18:43;1.33;;;1.05;;
13487;SDS011;6816;48.506;9.050;2023-07-20T12:21:44;1.23;;;1.13;;
13487;SDS011;6816;48.506;9.050;2023-07-20T12:24:45;2.15;;;0.90;;
13487;SDS011;6816;48.506;9.050;2023-07-20T12:27:47;1.35;;;1.15;;
13487;SDS011;6816;48.506;9.050;2023-07-20T12:30:48;1.65;;;1.10;;
13487;SDS011;6816;48.506;9.050;2023-07-20T12:33:56;1.88;;;1.20;;
13487;SDS011;6816;48.506;9.050;2023-07-20T12:36:58;1.25;;;1.15;;
13487;SDS011;6816;48.506;9.050;2023-07-20T12:39:59;1.13;;;1.02;;
13487;SDS011;6816;48.506;9.050;2023-07-20T12:43:00;1.00;;;0.90;;
13487;SDS011;6816;48.506;9.050;2023-07-20T12:46:00;2.90;;;1.20;;
13487;SDS011;6816;48.506;9.050;2023-07-20T12:49:01;1.10;;;1.10;;
13487;SDS011;6816;48.506;9.050;2023-07-20T12:52:02;1.23;;;1.15;;
13487;SDS011;6816;48.506;9.050;2023-07-20T12:55:03;1.70;;;0.95;;
13487;SDS011;6816;48.506;9.050;2023-07-20T12:58:08;1.17;;;1.10;;
13487;SDS011;6816;48.506;9.050;2023-07-20T13:01:09;1.05;;;1.05;;
13487;SDS011;6816;48.506;9.050;2023-07-20T13:04:09;2.50;;;1.00;;
13487;SDS011;6816;48.506;9.050;2023-07-20T13:07:10;2.33;;;1.10;;
13487;SDS011;6816;48.506;9.050;2023-07-20T13:10:12;1.00;;;0.90;;
13487;SDS011;6816;48.506;9.050;2023-07-20T13:13:13;1.95;;;1.30;;
13487;SDS011;6816;48.506;9.050;2023-07-20T13:16:13;0.93;;;0.90;;
13487;SDS011;6816;48.506;9.050;2023-07-20T13:19:15;1.98;;;1.20;;
13487;SDS011;6816;48.506;9.050;2023-07-20T13:22:15;2.45;;;0.85;;
13487;SDS011;6816;48.506;9.050;2023-07-20T13:25:16;1.20;;;1.10;;
13487;SDS011;6816;48.506;9.050;2023-07-20T13:28:16;1.20;;;1.10;;
13487;SDS011;6816;48.506;9.050;2023-07-20T13:31:17;1.20;;;1.10;;
13487;SDS011;6816;48.506;9.050;2023-07-20T13:34:18;1.20;;;1.10;;
13487;SDS011;6816;48.506;9.050;2023-07-20T13:37:18;1.40;;;1.13;;
13487;SDS011;6816;48.506;9.050;2023-07-20T13:40:19;1.20;;;1.10;;
13487;SDS011;6816;48.506;9.050;2023-07-20T13:43:19;1.50;;;1.17;;
13487;SDS011;6816;48.506;9.050;2023-07-20T13:46:20;1.30;;;1.17;;
13487;SDS011;6816;48.506;9.050;2023-07-20T13:49:21;1.10;;;1.00;;
13487;SDS011;6816;48.506;9.050;2023-07-20T13:52:21;1.00;;;1.00;;
13487;SDS011;6816;48.506;9.050;2023-07-20T13:55:22;1.20;;;1.10;;
13487;SDS011;6816;48.506;9.050;2023-07-20T13:58:23;1.00;;;1.00;;
13487;SDS011;6816;48.506;9.050;2023-07-20T14:01:24;1.35;;;1.25;;
13487;SDS011;6816;48.506;9.050;2023-07-20T14:04:25;1.35;;;0.95;;
13487;SDS011;6816;48.506;9.050;2023-07-20T14:07:25;0.90;;;0.90;;
13487;SDS011;6816;48.506;9.050;2023-07-20T14:10:26;1.30;;;1.20;;
13487;SDS011;6816;48.506;9.050;2023-07-20T14:13:26;1.10;;;1.00;;
13487;SDS011;6816;48.506;9.050;2023-07-20T14:16:27;1.55;;;1.20;;
13487;SDS011;6816;48.506;9.050;2023-07-20T14:19:28;1.08;;;1.08;;
13487;SDS011;6816;48.506;9.050;2023-07-20T14:22:28;1.20;;;1.10;;
13487;SDS011;6816;48.506;9.050;2023-07-20T14:25:29;1.65;;;1.25;;
13487;SDS011;6816;48.506;9.050;2023-07-20T14:28:29;1.40;;;1.30;;
13487;SDS011;6816;48.506;9.050;2023-07-20T14:31:30;2.97;;;1.15;;
13487;SDS011;6816;48.506;9.050;2023-07-20T14:34:30;3.25;;;1.10;;
13487;SDS011;6816;48.506;9.050;2023-07-20T14:37:31;3.92;;;1.38;;
13487;SDS011;6816;48.506;9.050;2023-07-20T14:40:32;1.33;;;1.20;;
13487;SDS011;6816;48.506;9.050;2023-07-20T14:43:32;1.40;;;1.30;;
13487;SDS011;6816;48.506;9.050;2023-07-20T14:46:33;3.70;;;2.58;;
13487;SDS011;6816;48.506;9.050;2023-07-20T14:49:33;1.80;;;1.67;;
13487;SDS011;6816;48.506;9.050;2023-07-20T14:52:34;1.85;;;1.27;;
13487;SDS011;6816;48.506;9.050;2023-07-20T14:55:35;1.67;;;1.38;;
13487;SDS011;6816;48.506;9.050;2023-07-20T14:58:35;1.38;;;1.27;;
13487;SDS011;6816;48.506;9.050;2023-07-20T15:01:36;0.90;;;0.90;;
13487;SDS011;6816;48.506;9.050;2023-07-20T15:04:36;1.40;;;1.30;;
13487;SDS011;6816;48.506;9.050;2023-07-20T15:07:37;5.47;;;4.97;;
13487;SDS011;6816;48.506;9.050;2023-07-20T15:10:39;3.53;;;3.17;;
13487;SDS011;6816;48.506;9.050;2023-07-20T15:13:40;1.85;;;1.73;;
13487;SDS011;6816;48.506;9.050;2023-07-20T15:16:42;1.58;;;1.48;;
13487;SDS011;6816;48.506;9.050;2023-07-20T15:19:43;2.67;;;1.20;;
13487;SDS011;6816;48.506;9.050;2023-07-20T15:22:43;1.10;;;1.00;;
13487;SDS011;6816;48.506;9.050;2023-07-20T15:25:44;1.30;;;1.00;;
13487;SDS011;6816;48.506;9.050;2023-07-20T15:28:45;2.08;;;1.30;;
13487;SDS011;6816;48.506;9.050;2023-07-20T15:31:46;1.65;;;1.55;;
13487;SDS011;6816;48.506;9.050;2023-07-20T15:34:46;1.63;;;1.52;;
13487;SDS011;6816;48.506;9.050;2023-07-20T15:37:47;1.58;;;1.42;;
13487;SDS011;6816;48.506;9.050;2023-07-20T15:40:48;1.98;;;1.10;;
13487;SDS011;6816;48.506;9.050;2023-07-20T15:43:51;1.20;;;1.10;;
13487;SDS011;6816;48.506;9.050;2023-07-20T15:46:52;1.10;;;1.00;;
13487;SDS011;6816;48.506;9.050;2023-07-20T15:49:53;0.95;;;0.95;;
13487;SDS011;6816;48.506;9.050;2023-07-20T15:52:54;1.30;;;1.20;;
13487;SDS011;6816;48.506;9.050;2023-07-20T15:55:55;2.67;;;1.10;;
13487;SDS011;6816;48.506;9.050;2023-07-20T15:58:56;2.35;;;1.00;;
13487;SDS011;6816;48.506;9.050;2023-07-20T16:01:56;1.13;;;1.10;;
13487;SDS011;6816;48.506;9.050;2023-07-20T16:04:57;1.80;;;1.15;;
13487;SDS011;6816;48.506;9.050;2023-07-20T16:07:57;1.90;;;1.10;;
13487;SDS011;6816;48.506;9.050;2023-07-20T16:10:58;1.65;;;1.25;;
13487;SDS011;6816;48.506;9.050;2023-07-20T16:14:00;1.20;;;1.10;;
13487;SDS011;6816;48.506;9.050;2023-07-20T16:17:01;1.55;;;1.25;;
13487;SDS011;6816;48.506;9.050;2023-07-20T16:20:02;3.60;;;1.27;;
13487;SDS011;6816;48.506;9.050;2023-07-20T16:23:04;2.00;;;1.40;;
13487;SDS011;6816;48.506;9.050;2023-07-20T16:26:05;1.33;;;1.23;;
13487;SDS011;6816;48.506;9.050;2023-07-20T16:29:06;1.35;;;1.25;;
13487;SDS011;6816;48.506;9.050;2023-07-20T16:32:06;1.30;;;1.20;;
13487;SDS011;6816;48.506;9.050;2023-07-20T16:35:07;1.05;;;0.95;;
13487;SDS011;6816;48.506;9.050;2023-07-20T16:38:08;1.30;;;1.20;;
13487;SDS011;6816;48.506;9.050;2023-07-20T16:41:10;3.08;;;1.23;;
13487;SDS011;6816;48.506;9.050;2023-07-20T16:44:11;1.10;;;1.00;;
13487;SDS011;6816;48.506;9.050;2023-07-20T16:47:12;1.60;;;1.23;;
13487;SDS011;6816;48.506;9.050;2023-07-20T16:50:12;1.55;;;1.13;;
13487;SDS011;6816;48.506;9.050;2023-07-20T16:53:15;1.52;;;1.20;;
13487;SDS011;6816;48.506;9.050;2023-07-20T16:56:15;1.63;;;1.13;;
13487;SDS011;6816;48.506;9.050;2023-07-20T16:59:16;1.42;;;1.00;;
13487;SDS011;6816;48.506;9.050;2023-07-20T17:02:18;1.55;;;1.10;;
13487;SDS011;6816;48.506;9.050;2023-07-20T17:05:19;2.20;;;1.10;;
13487;SDS011;6816;48.506;9.050;2023-07-20T17:08:19;1.15;;;1.02;;
13487;SDS011;6816;48.506;9.050;2023-07-20T17:11:20;1.38;;;1.27;;
13487;SDS011;6816;48.506;9.050;2023-07-20T17:14:20;0.98;;;0.85;;
13487;SDS011;6816;48.506;9.050;2023-07-20T17:17:21;1.30;;;1.20;;
13487;SDS011;6816;48.506;9.050;2023-07-20T17:20:22;1.77;;;1.20;;
13487;SDS011;6816;48.506;9.050;2023-07-20T17:23:22;1.75;;;1.20;;
13487;SDS011;6816;48.506;9.050;2023-07-20T17:26:23;2.35;;;1.05;;
13487;SDS011;6816;48.506;9.050;2023-07-20T17:29:23;1.33;;;1.00;;
13487;SDS011;6816;48.506;9.050;2023-07-20T17:32:24;1.17;;;1.08;;
13487;SDS011;6816;48.506;9.050;2023-07-20T17:35:25;1.00;;;0.90;;
13487;SDS011;6816;48.506;9.050;2023-07-20T17:38:27;2.90;;;1.10;;
13487;SDS011;6816;48.506;9.050;2023-07-20T17:41:28;1.02;;;0.98;;
13487;SDS011;6816;48.506;9.050;2023-07-20T17:44:29;1.10;;;1.08;;
13487;SDS011;6816;48.506;9.050;2023-07-20T17:47:29;0.93;;;0.90;;
13487;SDS011;6816;48.506;9.050;2023-07-20T17:50:30;2.55;;;1.20;;
13487;SDS011;6816;48.506;9.050;2023-07-20T17:53:31;1.20;;;1.10;;
13487;SDS011;6816;48.506;9.050;2023-07-20T17:56:32;1.08;;;0.98;;
13487;SDS011;6816;48.506;9.050;2023-07-20T17:59:34;1.20;;;1.10;;
13487;SDS011;6816;48.506;9.050;2023-07-20T18:02:38;2.67;;;0.98;;
13487;SDS011;6816;48.506;9.050;2023-07-20T18:05:38;1.17;;;1.00;;
13487;SDS011;6816;48.506;9.050;2023-07-20T18:08:39;1.02;;;0.90;;
13487;SDS011;6816;48.506;9.050;2023-07-20T18:11:41;1.10;;;0.90;;
13487;SDS011;6816;48.506;9.050;2023-07-20T18:14:41;2.13;;;1.05;;
13487;SDS011;6816;48.506;9.050;2023-07-20T18:17:42;1.05;;;0.95;;
13487;SDS011;6816;48.506;9.050;2023-07-20T18:20:42;1.30;;;1.20;;
13487;SDS011;6816;48.506;9.050;2023-07-20T18:23:43;1.23;;;1.13;;
13487;SDS011;6816;48.506;9.050;2023-07-20T18:26:43;1.42;;;1.33;;
13487;SDS011;6816;48.506;9.050;2023-07-20T18:29:44;2.00;;;0.90;;
13487;SDS011;6816;48.506;9.050;2023-07-20T18:32:45;2.05;;;0.93;;
13487;SDS011;6816;48.506;9.050;2023-07-20T18:35:46;1.00;;;1.00;;
13487;SDS011;6816;48.506;9.050;2023-07-20T18:38:47;1.73;;;1.00;;